createdAt,value
2024-01-15T00:00:06.210Z,97.81
2024-01-15T00:01:09.308Z,98.04
2024-01-15T00:02:13.217Z,97.83
2024-01-15T00:03:15.289Z,97.92
2024-01-15T00:04:17.497Z,97.59
2024-01-15T00:05:19.677Z,97.45
2024-01-15T00:06:23.993Z,97.63
2024-01-15T00:07:26.223Z,97.50
2024-01-15T00:08:28.140Z,97.70
2024-01-15T00:09:30.121Z,97.97
2024-01-15T00:10:32.635Z,98.06
2024-01-15T00:11:35.419Z,98.35
2024-01-15T00:12:37.455Z,98.07
2024-01-15T00:13:39.959Z,98.22
2024-01-15T00:14:41.908Z,98.25
2024-01-15T00:15:43.928Z,98.27
2024-01-15T00:16:47.263Z,98.31
2024-01-15T00:17:49.328Z,98.35
2024-01-15T00:18:51.570Z,98.44
2024-01-15T00:19:54.099Z,98.37
2024-01-15T00:20:56.716Z,98.07
2024-01-15T00:21:58.802Z,97.75
2024-01-15T00:23:00.826Z,97.53
2024-01-15T00:24:03.203Z,97.39
2024-01-15T00:25:05.785Z,97.18
2024-01-15T00:26:10.634Z,97.12
2024-01-15T00:27:12.449Z,97.08
2024-01-15T00:28:14.575Z,97.12
2024-01-15T00:29:16.625Z,97.00
2024-01-15T00:30:19.307Z,96.99
2024-01-15T00:31:21.555Z,96.75
2024-01-15T00:32:23.841Z,96.63
2024-01-15T00:33:25.969Z,96.63
2024-01-15T00:34:28.322Z,96.55
2024-01-15T00:35:30.461Z,96.60
2024-01-15T00:36:32.772Z,96.72
2024-01-15T00:37:38.472Z,96.74
2024-01-15T00:38:40.438Z,96.85
2024-01-15T00:39:42.657Z,96.93
2024-01-15T00:40:44.967Z,97.26
2024-01-15T00:41:46.985Z,97.20
2024-01-15T00:42:49.218Z,96.99
2024-01-15T00:43:51.235Z,96.85
2024-01-15T00:44:53.323Z,96.93
2024-01-15T00:45:55.367Z,96.95
2024-01-15T00:46:57.545Z,96.99
2024-01-15T00:47:59.791Z,97.32
2024-01-15T00:49:01.913Z,97.82
2024-01-15T00:50:04.446Z,98.20
2024-01-15T00:51:07.116Z,98.38
2024-01-15T00:52:09.077Z,98.26
2024-01-15T00:53:11.003Z,98.16
2024-01-15T00:54:14.160Z,98.04
2024-01-15T00:55:17.270Z,98.50
2024-01-15T00:56:20.016Z,98.86
2024-01-15T00:57:22.221Z,98.92
2024-01-15T00:58:24.479Z,98.95
2024-01-15T00:59:26.614Z,98.97
2024-01-15T01:00:29.128Z,98.91
2024-01-15T01:01:32.348Z,98.90
2024-01-15T01:02:34.563Z,99.48
2024-01-15T01:03:37.829Z,99.95
2024-01-15T01:04:40.693Z,100.00
2024-01-15T01:05:43.141Z,100.00
2024-01-15T01:06:45.454Z,99.87
2024-01-15T01:07:47.719Z,99.90
2024-01-15T01:08:49.742Z,99.74
2024-01-15T01:09:53.165Z,99.48
2024-01-15T01:10:57.473Z,99.33
2024-01-15T01:11:59.853Z,99.12
2024-01-15T01:13:06.313Z,99.47
2024-01-15T01:14:08.678Z,99.41
2024-01-15T01:15:11.274Z,99.33
2024-01-15T01:16:14.455Z,99.07
2024-01-15T01:17:16.410Z,99.19
2024-01-15T01:18:20.935Z,99.04
2024-01-15T01:19:23.534Z,98.78
2024-01-15T01:20:26.043Z,98.55
2024-01-15T01:21:28.260Z,98.38
2024-01-15T01:22:31.116Z,98.32
2024-01-15T01:23:33.410Z,98.33
2024-01-15T01:24:35.344Z,98.37
2024-01-15T01:25:37.306Z,98.38
2024-01-15T01:26:41.218Z,98.72
2024-01-15T01:27:43.472Z,98.74
2024-01-15T01:28:45.532Z,99.07
2024-01-15T01:29:47.539Z,99.78
2024-01-15T01:30:49.929Z,99.64
2024-01-15T01:31:52.326Z,99.87
2024-01-15T01:32:54.449Z,99.85
2024-01-15T01:33:56.678Z,99.80
2024-01-15T01:34:58.805Z,99.99
2024-01-15T01:36:00.754Z,100.00
2024-01-15T01:37:02.669Z,100.00
2024-01-15T01:38:04.660Z,100.00
2024-01-15T01:39:06.624Z,100.00
2024-01-15T01:40:09.873Z,100.00
2024-01-15T01:41:11.883Z,100.00
2024-01-15T01:42:14.052Z,100.00
2024-01-15T01:43:16.093Z,100.00
2024-01-15T01:44:18.027Z,100.00
2024-01-15T01:45:20.044Z,100.00
2024-01-15T01:46:22.771Z,100.00
2024-01-15T01:47:25.203Z,100.00
2024-01-15T01:48:28.103Z,100.00
2024-01-15T01:49:30.820Z,100.00
2024-01-15T01:50:33.887Z,100.00
2024-01-15T01:51:36.415Z,100.00
2024-01-15T01:52:40.139Z,100.00
2024-01-15T01:53:42.180Z,100.00
2024-01-15T01:54:44.383Z,100.00
2024-01-15T01:55:48.435Z,100.00
2024-01-15T01:56:52.964Z,100.00
2024-01-15T01:57:56.342Z,100.00
2024-01-15T01:58:59.100Z,100.00
2024-01-15T02:00:03.790Z,100.00
2024-01-15T02:01:07.812Z,100.00
2024-01-15T02:02:11.758Z,100.00
2024-01-15T02:03:14.863Z,100.00
2024-01-15T02:04:21.660Z,100.00
2024-01-15T02:05:24.900Z,100.00
2024-01-15T02:06:28.969Z,100.00
2024-01-15T02:07:34.656Z,100.00
2024-01-15T02:08:37.240Z,100.00
2024-01-15T02:09:39.177Z,100.00
2024-01-15T02:10:41.247Z,100.00
2024-01-15T02:11:43.457Z,100.00
2024-01-15T02:12:45.647Z,100.00
2024-01-15T02:13:48.362Z,100.00
2024-01-15T02:14:51.118Z,100.00
2024-01-15T02:15:54.338Z,100.00
2024-01-15T02:16:56.769Z,100.00
2024-01-15T02:18:07.345Z,100.00
2024-01-15T02:19:17.645Z,100.00
2024-01-15T02:20:23.228Z,100.00
2024-01-15T02:21:25.358Z,100.00
2024-01-15T02:22:27.308Z,100.00
2024-01-15T02:23:29.423Z,100.00
2024-01-15T02:24:31.781Z,100.00
2024-01-15T02:25:38.054Z,100.00
2024-01-15T02:26:40.340Z,100.00
2024-01-15T02:27:44.418Z,100.00
2024-01-15T02:28:46.601Z,100.00
2024-01-15T02:29:49.132Z,100.00
2024-01-15T02:30:51.635Z,100.00
2024-01-15T02:31:53.770Z,100.00
2024-01-15T02:32:55.818Z,100.00
2024-01-15T02:33:58.363Z,99.97
2024-01-15T02:35:00.806Z,99.80
2024-01-15T02:36:03.307Z,99.78
2024-01-15T02:37:05.397Z,99.78
2024-01-15T02:38:08.126Z,99.60
2024-01-15T02:39:10.194Z,99.55
2024-01-15T02:40:12.572Z,99.41
2024-01-15T02:41:14.475Z,99.34
2024-01-15T02:42:16.448Z,99.20
2024-01-15T02:43:18.435Z,99.20
2024-01-15T02:44:20.519Z,99.66
2024-01-15T02:45:23.184Z,99.99
2024-01-15T02:46:25.933Z,100.00
2024-01-15T02:47:27.882Z,100.00
2024-01-15T02:48:29.957Z,99.81
2024-01-15T02:49:31.996Z,100.00
2024-01-15T02:50:34.475Z,100.00
2024-01-15T02:51:36.530Z,100.00
2024-01-15T02:52:38.522Z,100.00
2024-01-15T02:53:40.497Z,100.00
2024-01-15T02:54:43.046Z,100.00
2024-01-15T02:55:45.032Z,100.00
2024-01-15T02:56:47.316Z,100.00
2024-01-15T02:57:49.461Z,99.91
2024-01-15T02:58:51.529Z,99.70
2024-01-15T02:59:53.558Z,99.54
2024-01-15T03:00:55.966Z,99.47
2024-01-15T03:01:58.464Z,99.53
2024-01-15T03:03:00.637Z,99.20
2024-01-15T03:04:03.628Z,98.94
2024-01-15T03:05:07.574Z,98.86
2024-01-15T03:06:11.491Z,98.63
2024-01-15T03:07:14.193Z,98.47
2024-01-15T03:08:16.212Z,98.37
2024-01-15T03:09:18.270Z,98.20
2024-01-15T03:10:21.935Z,98.53
2024-01-15T03:11:24.065Z,98.58
2024-01-15T03:12:26.043Z,98.38
2024-01-15T03:13:28.253Z,98.12
2024-01-15T03:14:30.309Z,98.35
2024-01-15T03:15:32.277Z,98.15
2024-01-15T03:16:34.364Z,98.10
2024-01-15T03:17:36.377Z,98.06
2024-01-15T03:18:38.404Z,98.12
2024-01-15T03:19:40.453Z,98.21
2024-01-15T03:20:43.534Z,97.98
2024-01-15T03:21:45.577Z,98.21
2024-01-15T03:22:47.578Z,98.18
2024-01-15T03:23:49.647Z,97.96
2024-01-15T03:24:52.868Z,97.63
2024-01-15T03:25:54.893Z,97.35
2024-01-15T03:26:57.449Z,97.45
2024-01-15T03:27:59.511Z,97.18
2024-01-15T03:29:01.515Z,96.90
2024-01-15T03:30:04.272Z,96.84
2024-01-15T03:31:07.750Z,96.71
2024-01-15T03:32:11.169Z,96.37
2024-01-15T03:33:13.156Z,96.64
2024-01-15T03:34:15.777Z,96.97
2024-01-15T03:35:17.778Z,97.24
2024-01-15T03:36:20.859Z,97.12
2024-01-15T03:37:22.914Z,96.87
2024-01-15T03:38:24.824Z,96.93
2024-01-15T03:39:26.974Z,97.02
2024-01-15T03:40:29.597Z,96.87
2024-01-15T03:41:31.619Z,96.68
2024-01-15T03:42:33.743Z,96.32
2024-01-15T03:43:35.877Z,96.07
2024-01-15T03:44:38.012Z,95.87
2024-01-15T03:45:40.064Z,95.71
2024-01-15T03:46:42.469Z,95.48
2024-01-15T03:47:44.480Z,95.54
2024-01-15T03:48:46.944Z,95.85
2024-01-15T03:49:49.256Z,95.94
2024-01-15T03:50:51.883Z,95.65
2024-01-15T03:51:54.965Z,96.00
2024-01-15T03:52:56.903Z,96.24
2024-01-15T03:53:58.799Z,96.38
2024-01-15T03:55:00.770Z,96.08
2024-01-15T03:56:03.185Z,95.84
2024-01-15T03:57:05.253Z,95.44
2024-01-15T03:58:07.351Z,95.95
2024-01-15T03:59:09.330Z,95.98
2024-01-15T04:00:14.938Z,95.78
2024-01-15T04:01:17.121Z,95.74
2024-01-15T04:02:19.159Z,95.66
2024-01-15T04:03:21.435Z,96.03
2024-01-15T04:04:23.725Z,96.30
2024-01-15T04:05:26.565Z,96.29
2024-01-15T04:06:29.339Z,96.10
2024-01-15T04:07:31.510Z,96.16
2024-01-15T04:08:33.414Z,96.14
2024-01-15T04:09:35.403Z,95.94
2024-01-15T04:10:37.826Z,95.71
2024-01-15T04:11:39.901Z,95.92
2024-01-15T04:12:42.312Z,95.80
2024-01-15T04:13:44.244Z,95.37
2024-01-15T04:14:46.262Z,95.39
2024-01-15T04:15:48.197Z,95.02
2024-01-15T04:16:50.633Z,95.37
2024-01-15T04:17:52.610Z,95.28
2024-01-15T04:18:54.628Z,95.42
2024-01-15T04:19:56.727Z,95.10
2024-01-15T04:20:59.184Z,94.86
2024-01-15T04:22:01.128Z,94.67
2024-01-15T04:23:03.265Z,94.39
2024-01-15T04:24:05.683Z,94.53
2024-01-15T04:25:07.898Z,94.63
2024-01-15T04:26:10.189Z,94.62
2024-01-15T04:27:15.151Z,94.04
2024-01-15T04:28:17.175Z,94.05
2024-01-15T04:29:19.192Z,94.11
2024-01-15T04:30:22.101Z,94.06
2024-01-15T04:31:25.864Z,94.12
2024-01-15T04:32:28.004Z,94.31
2024-01-15T04:33:30.210Z,94.93
2024-01-15T04:34:32.459Z,94.64
2024-01-15T04:35:34.795Z,94.31
2024-01-15T04:36:41.863Z,93.93
2024-01-15T04:37:44.031Z,94.20
2024-01-15T04:38:45.997Z,93.94
2024-01-15T04:39:48.054Z,93.72
2024-01-15T04:40:50.579Z,93.32
2024-01-15T04:41:52.616Z,93.62
2024-01-15T04:42:55.128Z,94.10
2024-01-15T04:43:57.123Z,94.19
2024-01-15T04:45:01.198Z,94.40
2024-01-15T04:46:05.437Z,94.16
2024-01-15T04:47:07.470Z,94.29
2024-01-15T04:48:09.626Z,94.45
2024-01-15T04:49:12.529Z,94.72
2024-01-15T04:50:15.968Z,94.70
2024-01-15T04:51:18.035Z,94.59
2024-01-15T04:52:20.133Z,94.49
2024-01-15T04:53:24.059Z,94.29
2024-01-15T04:54:26.092Z,94.28
2024-01-15T04:55:29.419Z,94.06
2024-01-15T04:56:32.130Z,94.15
2024-01-15T04:57:37.466Z,94.10
2024-01-15T04:58:39.680Z,93.88
2024-01-15T04:59:41.630Z,93.63
2024-01-15T05:00:44.177Z,93.77
2024-01-15T05:01:46.196Z,93.75
2024-01-15T05:02:48.354Z,93.64
2024-01-15T05:03:50.843Z,93.43
2024-01-15T05:04:53.082Z,93.46
2024-01-15T05:05:55.280Z,93.42
2024-01-15T05:06:57.782Z,93.33
2024-01-15T05:07:59.872Z,92.98
2024-01-15T05:09:01.959Z,92.90
2024-01-15T05:10:04.652Z,92.66
2024-01-15T05:11:10.184Z,92.41
2024-01-15T05:12:12.270Z,92.52
2024-01-15T05:13:16.246Z,92.53
2024-01-15T05:14:18.352Z,92.37
2024-01-15T05:15:20.380Z,92.19
2024-01-15T05:16:24.196Z,92.07
2024-01-15T05:17:26.123Z,92.10
2024-01-15T05:18:28.264Z,91.89
2024-01-15T05:19:30.530Z,91.92
2024-01-15T05:20:32.884Z,91.67
2024-01-15T05:21:34.996Z,91.50
2024-01-15T05:22:36.993Z,91.25
2024-01-15T05:23:38.984Z,90.92
2024-01-15T05:24:42.445Z,90.79
2024-01-15T05:25:44.467Z,90.99
2024-01-15T05:26:47.244Z,91.06
2024-01-15T05:27:49.222Z,90.79
2024-01-15T05:28:51.188Z,90.91
2024-01-15T05:29:53.184Z,91.12
2024-01-15T05:30:55.499Z,91.27
2024-01-15T05:32:01.290Z,91.32
2024-01-15T05:33:01.676Z,91.15
2024-01-15T05:34:03.956Z,91.02
2024-01-15T05:35:06.247Z,90.96
2024-01-15T05:36:08.846Z,90.92
2024-01-15T05:37:10.905Z,90.71
2024-01-15T05:38:13.065Z,90.90
2024-01-15T05:39:15.321Z,90.92
2024-01-15T05:40:17.829Z,90.76
2024-01-15T05:41:19.752Z,90.54
2024-01-15T05:42:21.808Z,90.96
2024-01-15T05:43:23.755Z,90.64
2024-01-15T05:44:25.728Z,90.31
2024-01-15T05:45:27.934Z,90.06
2024-01-15T05:46:29.977Z,89.81
2024-01-15T05:47:32.151Z,90.46
2024-01-15T05:48:34.453Z,90.66
2024-01-15T05:49:36.777Z,90.49
2024-01-15T05:50:39.193Z,90.47
2024-01-15T05:51:41.153Z,90.00
2024-01-15T05:52:43.124Z,90.11
2024-01-15T05:53:45.042Z,90.01
2024-01-15T05:54:47.156Z,90.28
2024-01-15T05:55:49.190Z,89.82
2024-01-15T05:56:51.264Z,89.73
2024-01-15T05:57:53.227Z,89.60
2024-01-15T05:58:55.131Z,89.36
2024-01-15T05:59:57.296Z,89.36
2024-01-15T06:00:59.781Z,89.85
2024-01-15T06:02:01.909Z,89.93
2024-01-15T06:03:06.072Z,90.11
2024-01-15T06:04:09.434Z,90.31
2024-01-15T06:05:11.636Z,90.25
2024-01-15T06:06:14.242Z,90.25
2024-01-15T06:07:16.565Z,90.19
2024-01-15T06:08:18.565Z,89.88
2024-01-15T06:09:20.569Z,89.63
2024-01-15T06:10:23.688Z,89.18
2024-01-15T06:11:30.594Z,88.84
2024-01-15T06:12:32.557Z,88.76
2024-01-15T06:13:35.008Z,88.92
2024-01-15T06:14:36.905Z,88.74
2024-01-15T06:15:40.283Z,88.78
2024-01-15T06:16:42.876Z,88.65
2024-01-15T06:17:47.133Z,89.09
2024-01-15T06:18:49.300Z,89.06
2024-01-15T06:19:51.585Z,88.67
2024-01-15T06:20:53.844Z,88.71
2024-01-15T06:21:56.480Z,88.49
2024-01-15T06:22:58.530Z,88.37
2024-01-15T06:24:00.462Z,88.43
2024-01-15T06:25:03.390Z,88.26
2024-01-15T06:26:05.593Z,87.68
2024-01-15T06:27:08.352Z,87.77
2024-01-15T06:28:11.815Z,87.57
2024-01-15T06:29:14.002Z,87.46
2024-01-15T06:30:18.214Z,87.65
2024-01-15T06:31:20.398Z,87.49
2024-01-15T06:32:22.418Z,87.39
2024-01-15T06:33:24.717Z,87.47
2024-01-15T06:34:26.818Z,87.47
2024-01-15T06:35:28.849Z,87.43
2024-01-15T06:36:31.948Z,87.50
2024-01-15T06:37:34.344Z,87.54
2024-01-15T06:38:36.301Z,87.53
2024-01-15T06:39:38.365Z,87.31
2024-01-15T06:40:40.497Z,87.33
2024-01-15T06:41:42.717Z,87.47
2024-01-15T06:42:44.753Z,87.50
2024-01-15T06:43:46.766Z,87.10
2024-01-15T06:44:48.646Z,86.89
2024-01-15T06:45:50.827Z,86.95
2024-01-15T06:46:53.381Z,87.03
2024-01-15T06:47:55.353Z,86.82
2024-01-15T06:48:57.431Z,87.07
2024-01-15T06:49:59.519Z,86.62
2024-01-15T06:51:01.606Z,87.11
2024-01-15T06:52:04.113Z,87.20
2024-01-15T06:53:06.246Z,87.03
2024-01-15T06:54:08.602Z,86.92
2024-01-15T06:55:10.585Z,86.72
2024-01-15T06:56:14.094Z,86.32
2024-01-15T06:57:16.125Z,86.38
2024-01-15T06:58:18.098Z,85.81
2024-01-15T06:59:20.692Z,85.91
2024-01-15T07:00:23.119Z,85.87
2024-01-15T07:01:25.433Z,86.11
2024-01-15T07:02:27.656Z,85.75
2024-01-15T07:03:29.791Z,85.51
2024-01-15T07:04:31.820Z,85.82
2024-01-15T07:05:36.018Z,85.97
2024-01-15T07:06:39.285Z,85.61
2024-01-15T07:07:41.486Z,85.66
2024-01-15T07:08:43.812Z,85.75
2024-01-15T07:09:45.848Z,85.40
2024-01-15T07:10:48.068Z,85.81
2024-01-15T07:11:50.125Z,85.69
2024-01-15T07:12:55.770Z,85.53
2024-01-15T07:14:00.365Z,85.53
2024-01-15T07:15:02.714Z,85.70
2024-01-15T07:16:05.443Z,85.85
2024-01-15T07:17:07.593Z,86.91
2024-01-15T07:18:09.622Z,86.91
2024-01-15T07:19:12.412Z,86.79
2024-01-15T07:20:16.863Z,86.91
2024-01-15T07:21:19.260Z,87.58
2024-01-15T07:22:22.528Z,87.65
2024-01-15T07:23:24.513Z,88.66
2024-01-15T07:24:26.528Z,89.32
2024-01-15T07:25:29.243Z,89.64
2024-01-15T07:26:31.778Z,90.06
2024-01-15T07:27:35.022Z,90.23
2024-01-15T07:28:37.228Z,90.44
2024-01-15T07:29:41.103Z,89.85
2024-01-15T07:30:48.055Z,90.38
2024-01-15T07:31:51.966Z,90.42
2024-01-15T07:32:54.451Z,91.36
2024-01-15T07:33:57.825Z,91.51
2024-01-15T07:35:01.610Z,91.34
2024-01-15T07:36:07.462Z,91.32
2024-01-15T07:37:09.527Z,91.39
2024-01-15T07:38:11.903Z,91.32
2024-01-15T07:39:14.086Z,91.09
2024-01-15T07:40:19.242Z,90.84
2024-01-15T07:41:21.304Z,90.92
2024-01-15T07:42:23.221Z,91.21
2024-01-15T07:43:26.652Z,91.01
2024-01-15T07:44:28.723Z,91.80
2024-01-15T07:45:32.240Z,91.67
2024-01-15T07:46:34.880Z,91.21
2024-01-15T07:47:37.072Z,90.91
2024-01-15T07:48:41.362Z,91.19
2024-01-15T07:49:44.604Z,91.19
2024-01-15T07:50:51.484Z,91.48
2024-01-15T07:51:53.624Z,91.17
2024-01-15T07:52:55.769Z,91.42
2024-01-15T07:53:58.110Z,91.27
2024-01-15T07:55:01.377Z,91.36
2024-01-15T07:56:05.416Z,91.75
2024-01-15T07:57:07.455Z,92.51
2024-01-15T07:58:15.918Z,92.41
2024-01-15T07:59:13.148Z,92.25
2024-01-15T08:00:17.995Z,92.09
2024-01-15T08:01:23.379Z,91.54
2024-01-15T08:02:26.323Z,91.50
2024-01-15T08:03:28.560Z,91.52
2024-01-15T08:04:30.890Z,91.67
2024-01-15T08:05:33.134Z,91.10
2024-01-15T08:06:36.922Z,91.26
2024-01-15T08:07:40.124Z,91.54
2024-01-15T08:08:42.049Z,91.79
2024-01-15T08:09:44.037Z,91.09
2024-01-15T08:10:47.490Z,90.59
2024-01-15T08:11:49.616Z,90.96
2024-01-15T08:12:51.615Z,90.75
2024-01-15T08:13:53.573Z,90.50
2024-01-15T08:14:55.618Z,90.05
2024-01-15T08:15:57.912Z,89.60
2024-01-15T08:17:00.449Z,89.31
2024-01-15T08:18:03.858Z,89.69
2024-01-15T08:19:06.111Z,89.53
2024-01-15T08:20:09.808Z,89.54
2024-01-15T08:21:11.963Z,89.72
2024-01-15T08:22:14.044Z,89.83
2024-01-15T08:23:15.983Z,89.52
2024-01-15T08:24:18.516Z,89.43
2024-01-15T08:25:22.629Z,89.20
2024-01-15T08:26:25.204Z,89.93
2024-01-15T08:27:27.237Z,89.65
2024-01-15T08:28:29.311Z,89.17
2024-01-15T08:29:31.245Z,89.36
2024-01-15T08:30:33.465Z,89.82
2024-01-15T08:31:37.498Z,89.49
2024-01-15T08:32:39.629Z,89.25
2024-01-15T08:33:41.690Z,89.27
2024-01-15T08:34:43.769Z,89.64
2024-01-15T08:35:45.803Z,89.87
2024-01-15T08:36:48.269Z,89.44
2024-01-15T08:37:52.698Z,89.03
2024-01-15T08:38:54.722Z,88.69
2024-01-15T08:39:56.883Z,89.20
2024-01-15T08:40:59.684Z,89.09
2024-01-15T08:42:02.889Z,88.58
2024-01-15T08:43:06.802Z,87.99
2024-01-15T08:44:08.812Z,88.27
2024-01-15T08:45:10.757Z,87.71
2024-01-15T08:46:14.233Z,87.23
2024-01-15T08:47:16.199Z,86.96
2024-01-15T08:48:18.293Z,87.63
2024-01-15T08:49:20.276Z,87.57
2024-01-15T08:50:22.907Z,87.01
2024-01-15T08:51:24.871Z,86.58
2024-01-15T08:52:28.213Z,86.36
2024-01-15T08:53:30.143Z,85.60
2024-01-15T08:54:32.100Z,85.06
2024-01-15T08:55:34.565Z,85.46
2024-01-15T08:56:39.527Z,85.32
2024-01-15T08:57:41.824Z,85.44
2024-01-15T08:58:44.477Z,85.22
2024-01-15T08:59:46.405Z,84.96
2024-01-15T09:00:49.007Z,84.67
2024-01-15T09:01:53.195Z,84.30
2024-01-15T09:02:55.816Z,84.18
2024-01-15T09:03:57.963Z,83.03
2024-01-15T09:05:00.057Z,83.03
2024-01-15T09:06:04.904Z,82.42
2024-01-15T09:07:09.247Z,82.45
2024-01-15T09:08:11.401Z,82.16
2024-01-15T09:09:14.393Z,81.89
2024-01-15T09:10:17.099Z,81.38
2024-01-15T09:11:22.436Z,82.10
2024-01-15T09:12:28.081Z,81.84
2024-01-15T09:13:30.133Z,81.78
2024-01-15T09:14:36.765Z,81.76
2024-01-15T09:15:36.199Z,81.72
2024-01-15T09:16:38.638Z,82.28
2024-01-15T09:17:40.660Z,81.92
2024-01-15T09:18:42.990Z,81.03
2024-01-15T09:19:45.233Z,80.45
2024-01-15T09:20:47.792Z,80.08
2024-01-15T09:21:49.921Z,80.22
2024-01-15T09:22:52.300Z,80.37
2024-01-15T09:23:54.332Z,80.68
2024-01-15T09:24:56.470Z,80.39
2024-01-15T09:25:58.706Z,80.24
2024-01-15T09:27:01.088Z,79.62
2024-01-15T09:28:03.543Z,79.45
2024-01-15T09:29:05.529Z,79.18
2024-01-15T09:30:08.484Z,78.80
2024-01-15T09:31:10.668Z,78.68
2024-01-15T09:32:13.268Z,78.36
2024-01-15T09:33:17.395Z,78.61
2024-01-15T09:34:19.601Z,78.47
2024-01-15T09:35:23.651Z,79.08
2024-01-15T09:36:27.272Z,78.34
2024-01-15T09:37:41.202Z,78.18
2024-01-15T09:38:33.175Z,78.18
2024-01-15T09:39:35.380Z,78.07
2024-01-15T09:40:43.172Z,77.44
2024-01-15T09:41:48.025Z,77.42
2024-01-15T09:42:54.329Z,77.63
2024-01-15T09:43:57.979Z,77.75
2024-01-15T09:45:00.778Z,78.24
2024-01-15T09:46:03.985Z,77.81
2024-01-15T09:47:08.118Z,77.59
2024-01-15T09:48:11.075Z,76.98
2024-01-15T09:49:14.563Z,77.17
2024-01-15T09:50:20.895Z,77.61
2024-01-15T09:51:25.485Z,76.47
2024-01-15T09:52:27.572Z,76.59
2024-01-15T09:53:30.766Z,77.54
2024-01-15T09:54:36.483Z,76.68
2024-01-15T09:55:38.524Z,76.27
2024-01-15T09:56:41.063Z,76.14
2024-01-15T09:57:44.863Z,76.43
2024-01-15T09:58:49.512Z,75.93
2024-01-15T09:59:54.846Z,76.19
2024-01-15T10:00:58.768Z,75.85
2024-01-15T10:02:03.236Z,75.47
2024-01-15T10:03:07.344Z,76.01
2024-01-15T10:04:10.103Z,75.48
2024-01-15T10:05:13.331Z,75.26
2024-01-15T10:06:19.556Z,75.44
2024-01-15T10:07:22.077Z,74.85
2024-01-15T10:08:24.105Z,74.62
2024-01-15T10:09:26.436Z,75.39
2024-01-15T10:10:29.863Z,75.91
2024-01-15T10:11:36.187Z,74.97
2024-01-15T10:12:42.080Z,74.91
2024-01-15T10:13:51.394Z,75.21
2024-01-15T10:14:53.907Z,74.70
2024-01-15T10:15:57.450Z,74.51
2024-01-15T10:17:00.498Z,74.03
2024-01-15T10:18:03.057Z,73.87
2024-01-15T10:19:05.376Z,74.21
2024-01-15T10:20:12.320Z,74.81
2024-01-15T10:21:15.641Z,75.38
2024-01-15T10:22:17.680Z,74.84
2024-01-15T10:23:19.676Z,75.40
2024-01-15T10:24:27.338Z,75.22
2024-01-15T10:25:30.454Z,74.75
2024-01-15T10:26:33.924Z,74.64
2024-01-15T10:27:37.249Z,74.47
2024-01-15T10:28:40.161Z,74.37
2024-01-15T10:29:44.479Z,73.89
2024-01-15T10:30:49.175Z,73.42
2024-01-15T10:31:52.564Z,73.49
2024-01-15T10:33:01.127Z,73.62
2024-01-15T10:34:12.228Z,73.73
2024-01-15T10:35:16.231Z,74.28
2024-01-15T10:36:21.697Z,74.84
2024-01-15T10:37:28.541Z,75.12
2024-01-15T10:38:29.334Z,74.17
2024-01-15T10:39:38.052Z,74.01
2024-01-15T10:40:43.721Z,73.83
2024-01-15T10:41:45.842Z,73.47
2024-01-15T10:42:52.500Z,73.19
2024-01-15T10:43:57.422Z,74.19
2024-01-15T10:45:00.254Z,73.92
2024-01-15T10:46:03.998Z,73.95
2024-01-15T10:47:06.975Z,74.48
2024-01-15T10:48:11.092Z,73.69
2024-01-15T10:49:13.502Z,74.12
2024-01-15T10:50:24.982Z,73.65
2024-01-15T10:51:27.348Z,73.38
2024-01-15T10:52:30.124Z,73.24
2024-01-15T10:53:33.521Z,74.29
2024-01-15T10:54:40.345Z,74.09
2024-01-15T10:55:44.327Z,74.11
2024-01-15T10:56:50.423Z,73.76
2024-01-15T10:57:54.362Z,74.23
2024-01-15T10:59:00.812Z,74.05
2024-01-15T11:00:03.922Z,74.06
2024-01-15T11:01:07.585Z,74.33
2024-01-15T11:02:10.346Z,74.42
2024-01-15T11:03:13.160Z,74.05
2024-01-15T11:04:15.904Z,74.56
2024-01-15T11:05:19.088Z,74.18
2024-01-15T11:06:24.776Z,74.06
2024-01-15T11:07:29.595Z,74.40
2024-01-15T11:08:32.243Z,74.16
2024-01-15T11:09:35.545Z,73.69
2024-01-15T11:10:46.086Z,74.18
2024-01-15T11:11:51.741Z,74.71
2024-01-15T11:12:53.690Z,74.57
2024-01-15T11:13:55.961Z,74.13
2024-01-15T11:15:05.568Z,75.14
2024-01-15T11:16:11.189Z,74.95
2024-01-15T11:17:14.949Z,73.84
2024-01-15T11:18:17.070Z,74.38
2024-01-15T11:19:19.405Z,74.74
2024-01-15T11:20:22.218Z,74.22
2024-01-15T11:21:27.862Z,74.11
2024-01-15T11:22:33.919Z,74.14
2024-01-15T11:23:57.004Z,74.57
2024-01-15T11:26:38.396Z,75.09
2024-01-15T11:27:43.499Z,75.04
2024-01-15T11:28:48.571Z,75.24
2024-01-15T11:29:54.300Z,75.67
2024-01-15T11:30:59.161Z,75.90
2024-01-15T11:32:07.398Z,75.55
2024-01-15T11:33:19.762Z,75.91
2024-01-15T11:34:24.361Z,75.94
2024-01-15T11:35:30.224Z,75.41
2024-01-15T11:36:55.922Z,76.09
2024-01-15T11:37:58.718Z,75.89
2024-01-15T11:39:00.842Z,76.09
2024-01-15T11:40:03.944Z,76.57
2024-01-15T11:41:09.866Z,75.94
2024-01-15T11:42:13.966Z,76.76
2024-01-15T11:43:16.300Z,76.37
2024-01-15T11:44:19.472Z,75.59
2024-01-15T11:45:23.165Z,75.83
2024-01-15T11:46:29.998Z,75.36
2024-01-15T11:47:57.958Z,75.34
2024-01-15T11:49:04.124Z,75.47
2024-01-15T11:50:07.914Z,75.45
2024-01-15T11:51:12.104Z,75.51
2024-01-15T11:52:17.721Z,76.54
2024-01-15T11:53:45.787Z,76.05
2024-01-15T11:55:02.969Z,77.24
2024-01-15T11:56:10.091Z,76.31
2024-01-15T11:57:16.431Z,75.82
2024-01-15T11:58:18.730Z,76.10
2024-01-15T11:59:20.708Z,76.02
2024-01-15T12:00:26.097Z,76.27
2024-01-15T12:01:29.648Z,75.86
2024-01-15T12:02:33.643Z,76.47
2024-01-15T12:03:35.943Z,76.12
2024-01-15T12:04:40.242Z,76.64
2024-01-15T12:05:43.434Z,77.19
2024-01-15T12:06:46.131Z,77.35
2024-01-15T12:07:50.127Z,76.55
2024-01-15T12:09:10.285Z,76.93
2024-01-15T12:10:17.605Z,77.52
2024-01-15T12:11:22.781Z,77.40
2024-01-15T12:12:30.372Z,77.66
2024-01-15T12:13:32.379Z,77.22
2024-01-15T12:14:34.353Z,77.49
2024-01-15T12:15:37.615Z,77.02
2024-01-15T12:16:39.847Z,77.56
2024-01-15T12:17:42.234Z,77.60
2024-01-15T12:18:45.657Z,77.31
2024-01-15T12:19:49.053Z,77.57
2024-01-15T12:20:55.003Z,77.43
2024-01-15T12:21:59.080Z,76.62
2024-01-15T12:23:04.171Z,76.79
2024-01-15T12:24:08.897Z,76.81
2024-01-15T12:25:11.036Z,77.23
2024-01-15T12:26:15.414Z,77.58
2024-01-15T12:27:17.847Z,77.33
2024-01-15T12:28:19.871Z,76.79
2024-01-15T12:29:21.797Z,76.65
2024-01-15T12:30:26.298Z,77.37
2024-01-15T12:31:30.412Z,77.49
2024-01-15T12:32:32.495Z,77.20
2024-01-15T12:33:36.803Z,77.23
2024-01-15T12:34:40.445Z,77.80
2024-01-15T12:35:42.449Z,77.59
2024-01-15T12:36:47.471Z,77.30
2024-01-15T12:37:51.867Z,77.40
2024-01-15T12:38:53.812Z,77.83
2024-01-15T12:39:55.821Z,78.37
2024-01-15T12:41:01.798Z,78.37
2024-01-15T12:42:04.944Z,78.11
2024-01-15T12:43:09.298Z,77.87
2024-01-15T12:44:11.951Z,77.86
2024-01-15T12:45:17.068Z,77.49
2024-01-15T12:46:19.808Z,77.94
2024-01-15T12:47:22.088Z,77.91
2024-01-15T12:48:24.739Z,78.20
2024-01-15T12:49:26.933Z,78.00
2024-01-15T12:50:30.072Z,77.76
2024-01-15T12:51:36.038Z,77.71
2024-01-15T12:52:42.435Z,77.23
2024-01-15T12:53:44.581Z,77.72
2024-01-15T12:54:46.710Z,77.44
2024-01-15T12:55:48.767Z,78.00
2024-01-15T12:56:54.733Z,77.32
2024-01-15T12:57:57.046Z,76.62
2024-01-15T12:58:59.125Z,76.71
2024-01-15T13:00:04.935Z,76.60
2024-01-15T13:01:07.035Z,76.59
2024-01-15T13:02:09.276Z,76.16
2024-01-15T13:03:17.324Z,75.83
2024-01-15T13:04:26.337Z,75.59
2024-01-15T13:05:30.469Z,76.31
2024-01-15T13:06:32.988Z,76.11
2024-01-15T13:07:35.909Z,75.85
2024-01-15T13:08:39.809Z,75.82
2024-01-15T13:09:41.962Z,75.70
2024-01-15T13:10:44.700Z,75.66
2024-01-15T13:11:50.797Z,75.67
2024-01-15T13:12:53.809Z,75.84
2024-01-15T13:13:56.461Z,75.82
2024-01-15T13:15:00.602Z,75.65
2024-01-15T13:16:04.392Z,76.19
2024-01-15T13:17:07.604Z,75.91
2024-01-15T13:18:12.449Z,76.04
2024-01-15T13:19:15.854Z,75.88
2024-01-15T13:20:19.985Z,75.75
2024-01-15T13:21:23.354Z,75.13
2024-01-15T13:22:25.969Z,75.67
2024-01-15T13:23:28.109Z,75.32
2024-01-15T13:24:30.180Z,75.32
2024-01-15T13:25:32.573Z,75.44
2024-01-15T13:26:36.252Z,74.77
2024-01-15T13:27:40.226Z,75.14
2024-01-15T13:28:42.590Z,75.03
2024-01-15T13:29:44.489Z,74.95
2024-01-15T13:30:46.819Z,74.55
2024-01-15T13:31:52.240Z,74.96
2024-01-15T13:32:54.833Z,75.01